Time;durP1;ratioP1;P1;durP2;ratioP2;P2;SDS_P1;SDS_P2;PMS_P1;PMS_P2;Temp;Humidity;BMP_temperature;BMP_pressure;BME280_temperature;BME280_humidity;BME280_pressure;Samples;Min_cycle;Max_cycle;Signal;HPM_P1;HPM_P2
2022/06/10 00:01:21;;;;;;;;;6.25;5.00;;;;;-142.59;100.00;56100.38;5073035;28;49735;-68
2022/06/10 00:03:47;;;;;;;;;5.25;4.00;;;;;-142.59;100.00;56100.38;5073543;27;49798;-66
2022/06/10 00:06:13;;;;;;;;;3.00;3.00;;;;;-142.59;100.00;56100.38;5073506;28;49977;-67
2022/06/10 00:08:45;;;;;;;;;2.50;2.50;;;;;-142.59;100.00;56100.38;5073521;28;49639;-68
2022/06/10 00:11:11;;;;;;;;;6.00;5.00;;;;;-142.59;100.00;56100.38;5073331;28;49755;-67
2022/06/10 00:13:40;;;;;;;;;3.00;3.00;;;;;-142.59;100.00;56100.38;5073201;28;49830;-68
2022/06/10 00:16:07;;;;;;;;;5.25;3.00;;;;;-142.59;100.00;56100.38;5072862;28;49699;-67
2022/06/10 00:18:35;;;;;;;;;5.25;3.75;;;;;-142.59;100.00;56100.38;5073360;28;49748;-69
2022/06/10 00:21:02;;;;;;;;;4.75;4.00;;;;;-142.59;100.00;56100.38;5071534;28;50637;-67
2022/06/10 00:23:28;;;;;;;;;3.75;3.50;;;;;-142.59;100.00;56100.38;5072787;28;49554;-68
2022/06/10 00:25:54;;;;;;;;;4.75;3.75;;;;;-142.59;100.00;56100.38;5073104;28;49713;-67
2022/06/10 00:28:20;;;;;;;;;4.00;3.00;;;;;-142.59;100.00;56100.38;5073479;28;49603;-67
2022/06/10 00:30:45;;;;;;;;;4.75;4.75;;;;;-142.59;100.00;56100.38;5073086;28;49615;-67
2022/06/10 00:33:11;;;;;;;;;4.25;4.00;;;;;-142.59;100.00;56100.38;5072804;28;49879;-67
2022/06/10 00:35:36;;;;;;;;;5.00;5.00;;;;;-142.59;100.00;56100.38;5073210;27;49588;-68
2022/06/10 00:38:03;;;;;;;;;4.25;4.00;;;;;-142.59;100.00;56100.38;5073090;28;49908;-68
2022/06/10 00:40:37;;;;;;;;;4.50;4.50;;;;;-142.59;100.00;56100.38;5072481;28;50682;-67
2022/06/10 00:43:02;;;;;;;;;4.00;4.00;;;;;-142.59;100.00;56100.38;5072989;28;49766;-69
2022/06/10 00:46:07;;;;;;;;;5.50;3.00;;;;;-142.59;100.00;56100.38;5073287;28;49644;-68
2022/06/10 00:48:44;;;;;;;;;2.75;2.75;;;;;-142.59;100.00;56100.38;5053240;28;49833;-68
2022/06/10 00:51:35;;;;;;;;;4.25;2.75;;;;;-142.59;100.00;56100.38;5072687;28;49727;-67
2022/06/10 00:54:11;;;;;;;;;4.75;4.75;;;;;-142.59;100.00;56100.38;5072174;28;49757;-69
2022/06/10 00:56:40;;;;;;;;;5.25;3.25;;;;;-142.59;100.00;56100.38;5069569;28;49914;-67
2022/06/10 00:59:26;;;;;;;;;3.50;3.50;;;;;-142.59;100.00;56100.38;5073099;27;49698;-68
2022/06/10 01:02:00;;;;;;;;;2.75;2.75;;;;;-142.59;100.00;56100.38;5072812;28;49620;-68
2022/06/10 01:04:27;;;;;;;;;6.00;6.00;;;;;-142.59;100.00;56100.38;5072172;27;49746;-68
2022/06/10 01:06:52;;;;;;;;;3.25;3.00;;;;;-142.59;100.00;56100.38;5075588;28;49797;-69
2022/06/10 01:09:17;;;;;;;;;5.00;5.00;;;;;-142.59;100.00;56100.38;5076329;28;49701;-67
2022/06/10 01:12:01;;;;;;;;;3.75;3.50;;;;;-142.59;100.00;56100.38;5075971;27;49755;-69
2022/06/10 01:14:57;;;;;;;;;6.25;4.00;;;;;-142.59;100.00;56100.38;5075862;28;49880;-67
2022/06/10 01:17:59;;;;;;;;;2.00;2.00;;;;;-142.59;100.00;56100.38;5057107;28;49551;-69
2022/06/10 01:20:59;;;;;;;;;4.25;3.25;;;;;-142.59;100.00;56100.38;5076247;28;49509;-68
2022/06/10 01:23:36;;;;;;;;;4.00;4.00;;;;;-142.59;100.00;56100.38;5053190;27;50734;-68
2022/06/10 01:26:13;;;;;;;;;2.00;2.00;;;;;-142.59;100.00;56100.38;5075631;28;49706;-69
2022/06/10 01:29:03;;;;;;;;;7.00;4.25;;;;;-142.59;100.00;56100.38;5075877;28;49657;-67
2022/06/10 01:31:38;;;;;;;;;5.75;4.75;;;;;-142.59;100.00;56100.38;5075706;27;49653;-68
2022/06/10 01:34:23;;;;;;;;;3.75;2.75;;;;;-142.59;100.00;56100.38;5074807;27;51106;-67
2022/06/10 01:37:00;;;;;;;;;6.75;6.00;;;;;-142.59;100.00;56100.38;5075353;28;49756;-67
2022/06/10 01:39:43;;;;;;;;;5.00;3.00;;;;;-142.59;100.00;56100.38;5075473;28;49775;-68
2022/06/10 01:42:30;;;;;;;;;4.50;4.00;;;;;-142.59;100.00;56100.38;5075789;27;49803;-68
2022/06/10 01:45:42;;;;;;;;;5.75;4.25;;;;;-142.59;100.00;56100.38;5075518;28;50475;-67
2022/06/10 01:48:22;;;;;;;;;5.00;3.50;;;;;-142.59;100.00;56100.38;5019596;28;50430;-68
2022/06/10 01:51:09;;;;;;;;;4.75;3.25;;;;;-142.59;100.00;56100.38;5075128;27;49902;-69
2022/06/10 01:53:44;;;;;;;;;3.00;3.00;;;;;-142.59;100.00;56100.38;5075286;28;49767;-67
2022/06/10 01:56:18;;;;;;;;;5.75;4.50;;;;;-142.59;100.00;56100.38;5075362;27;50881;-67
2022/06/10 01:58:49;;;;;;;;;4.00;4.00;;;;;-142.59;100.00;56100.38;5074951;27;49788;-69
2022/06/10 02:01:27;;;;;;;;;3.25;3.25;;;;;-142.59;100.00;56100.38;5075357;28;49815;-67
2022/06/10 02:03:59;;;;;;;;;3.00;3.00;;;;;-142.59;100.00;56100.38;5075188;28;49759;-67
2022/06/10 02:06:28;;;;;;;;;2.75;2.75;;;;;-142.59;100.00;56100.38;5074862;28;49871;-68
2022/06/10 02:08:59;;;;;;;;;3.50;3.50;;;;;-142.59;100.00;56100.38;5075034;28;49607;-69
2022/06/10 02:11:27;;;;;;;;;4.75;3.75;;;;;-142.59;100.00;56100.38;5075316;28;49958;-67
2022/06/10 02:14:07;;;;;;;;;4.00;2.75;;;;;-142.59;100.00;56100.38;5074326;28;50029;-67
2022/06/10 02:16:38;;;;;;;;;3.00;3.00;;;;;-142.59;100.00;56100.38;5073240;28;50464;-66
2022/06/10 02:19:21;;;;;;;;;4.25;4.25;;;;;-142.59;100.00;56100.38;5074945;27;49820;-67
2022/06/10 02:21:52;;;;;;;;;3.75;3.75;;;;;-142.59;100.00;56100.38;5074950;28;49782;-67
2022/06/10 02:24:27;;;;;;;;;8.00;4.00;;;;;-142.59;100.00;56100.38;5075184;28;49735;-67
2022/06/10 02:27:01;;;;;;;;;5.00;4.00;;;;;-142.59;100.00;56100.38;5074741;28;51499;-67
2022/06/10 02:29:33;;;;;;;;;4.50;3.50;;;;;-142.59;100.00;56100.38;5074781;27;49568;-67
2022/06/10 02:32:00;;;;;;;;;4.50;4.00;;;;;-142.59;100.00;56100.38;5074791;28;49545;-68
2022/06/10 02:34:27;;;;;;;;;4.25;4.25;;;;;-142.59;100.00;56100.38;5074759;28;49890;-69
2022/06/10 02:37:00;;;;;;;;;4.00;3.25;;;;;-142.59;100.00;56100.38;5074542;27;49565;-68
2022/06/10 02:40:03;;;;;;;;;4.75;4.00;;;;;-142.59;100.00;56100.38;5074564;28;50203;-68
2022/06/10 02:42:48;;;;;;;;;4.00;2.25;;;;;-142.59;100.00;56100.38;5043889;27;49715;-69
2022/06/10 02:45:51;;;;;;;;;2.75;2.75;;;;;-142.59;100.00;56100.38;5075055;28;49657;-67
2022/06/10 02:48:43;;;;;;;;;3.00;3.00;;;;;-142.59;100.00;56100.38;5074511;28;49836;-66
2022/06/10 02:51:08;;;;;;;;;3.75;3.75;;;;;-142.59;100.00;56100.38;5074553;28;49779;-68
2022/06/10 02:53:34;;;;;;;;;6.50;4.25;;;;;-142.59;100.00;56100.38;5073974;28;49693;-66
2022/06/10 02:56:00;;;;;;;;;3.25;3.25;;;;;-142.59;100.00;56100.38;5074858;28;49977;-67
2022/06/10 03:01:38;;;;;;;;;2.50;2.50;;;;;-142.59;100.00;56100.38;5073860;28;49806;-67
2022/06/10 03:04:12;;;;;;;;;4.00;3.00;;;;;-142.59;100.00;56100.38;5074355;28;49995;-66
2022/06/10 03:07:28;;;;;;;;;3.75;3.50;;;;;-142.59;100.00;56100.38;5074750;28;49784;-68
2022/06/10 03:10:12;;;;;;;;;5.50;5.00;;;;;-142.59;100.00;56100.38;5031016;27;49832;-68
2022/06/10 03:12:48;;;;;;;;;4.00;3.00;;;;;-142.59;100.00;56100.38;5074175;27;49661;-68
2022/06/10 03:15:29;;;;;;;;;4.00;3.00;;;;;-142.59;100.00;56100.38;5073975;28;49752;-68
2022/06/10 03:18:19;;;;;;;;;4.00;3.00;;;;;-142.59;100.00;56100.38;5074453;27;49954;-67
2022/06/10 03:21:04;;;;;;;;;3.00;3.00;;;;;-142.59;100.00;56100.38;5074054;28;49731;-68
2022/06/10 03:23:59;;;;;;;;;5.00;4.00;;;;;-142.59;100.00;56100.38;5073979;28;49590;-69
2022/06/10 03:26:43;;;;;;;;;5.00;4.00;;;;;-142.59;100.00;56100.38;5073987;28;49783;-68
2022/06/10 03:29:50;;;;;;;;;3.00;3.00;;;;;-142.59;100.00;56100.38;5073326;28;50037;-67
2022/06/10 03:32:26;;;;;;;;;3.75;3.00;;;;;-142.59;100.00;56100.38;5073825;28;49853;-68
2022/06/10 03:35:02;;;;;;;;;2.50;2.50;;;;;-142.59;100.00;56100.38;5074011;28;49677;-67
2022/06/10 03:37:28;;;;;;;;;4.00;3.00;;;;;-142.59;100.00;56100.38;5073521;27;50028;-66
2022/06/10 03:39:56;;;;;;;;;3.75;3.75;;;;;-142.59;100.00;56100.38;5073724;28;49542;-68
2022/06/10 03:42:24;;;;;;;;;2.50;2.50;;;;;-142.59;100.00;56100.38;5073390;28;50363;-69
2022/06/10 03:44:53;;;;;;;;;3.00;3.00;;;;;-142.59;100.00;56100.38;5073327;28;49576;-67
2022/06/10 03:47:25;;;;;;;;;3.00;2.50;;;;;-142.59;100.00;56100.38;5073511;28;49656;-67
2022/06/10 03:49:57;;;;;;;;;4.50;4.50;;;;;-142.59;100.00;56100.38;5073770;28;49735;-66
2022/06/10 03:52:28;;;;;;;;;4.50;3.00;;;;;-142.59;100.00;56100.38;5073168;27;49666;-69
2022/06/10 03:54:54;;;;;;;;;3.00;3.00;;;;;-142.59;100.00;56100.38;5073658;28;49907;-69
2022/06/10 03:57:19;;;;;;;;;5.00;4.75;;;;;-142.59;100.00;56100.38;5073285;28;50052;-67
2022/06/10 03:59:45;;;;;;;;;5.25;4.00;;;;;-142.59;100.00;56100.38;5073836;28;49631;-67
2022/06/10 04:02:11;;;;;;;;;5.00;4.00;;;;;-142.59;100.00;56100.38;5073431;28;51551;-68
2022/06/10 04:04:38;;;;;;;;;7.50;5.00;;;;;-142.59;100.00;56100.38;5073340;28;49608;-69
2022/06/10 04:07:04;;;;;;;;;5.25;4.25;;;;;-142.59;100.00;56100.38;5073597;28;49754;-69
2022/06/10 04:09:29;;;;;;;;;4.00;4.00;;;;;-142.59;100.00;56100.38;5073172;28;49952;-67
2022/06/10 04:11:54;;;;;;;;;4.50;4.50;;;;;-142.59;100.00;56100.38;5073267;27;49633;-69
2022/06/10 04:14:20;;;;;;;;;4.50;4.00;;;;;-142.59;100.00;56100.38;5072644;28;49862;-67
2022/06/10 04:16:45;;;;;;;;;4.00;4.00;;;;;-142.59;100.00;56100.38;5073611;27;49759;-69
2022/06/10 04:19:12;;;;;;;;;3.50;3.50;;;;;-142.59;100.00;56100.38;5073100;28;49839;-68
2022/06/10 04:21:37;;;;;;;;;6.00;3.75;;;;;-142.59;100.00;56100.38;5073022;28;50760;-67
2022/06/10 04:24:03;;;;;;;;;3.75;3.25;;;;;-142.59;100.00;56100.38;5073457;28;49643;-67
2022/06/10 04:26:29;;;;;;;;;5.75;4.25;;;;;-142.59;100.00;56100.38;5073412;28;49811;-70
2022/06/10 04:28:54;;;;;;;;;5.00;4.00;;;;;-142.59;100.00;56100.38;5073480;28;49661;-68
2022/06/10 04:31:19;;;;;;;;;5.75;4.00;;;;;-142.59;100.00;56100.38;5072851;28;49863;-70
2022/06/10 04:33:46;;;;;;;;;4.25;3.00;;;;;-142.59;100.00;56100.38;5072435;28;49644;-67
2022/06/10 04:36:15;;;;;;;;;4.25;3.50;;;;;-142.59;100.00;56100.38;5052864;28;49847;-68
2022/06/10 04:38:41;;;;;;;;;4.25;4.25;;;;;-142.59;100.00;56100.38;5052804;28;49937;-67
2022/06/10 04:41:06;;;;;;;;;5.00;3.75;;;;;-142.59;100.00;56100.38;5054354;28;49645;-69
2022/06/10 04:43:33;;;;;;;;;3.50;3.50;;;;;-142.59;100.00;56100.38;5056321;28;49862;-70
2022/06/10 04:45:59;;;;;;;;;3.25;3.25;;;;;-142.59;100.00;56100.38;5066456;27;49638;-69
2022/06/10 04:48:24;;;;;;;;;3.25;3.25;;;;;-142.59;100.00;56100.38;5076513;28;49961;-67
2022/06/10 04:50:50;;;;;;;;;4.50;3.25;;;;;-142.59;100.00;56100.38;5076169;27;50629;-67
2022/06/10 04:53:16;;;;;;;;;6.25;6.00;;;;;-142.59;100.00;56100.38;5076261;27;50126;-67
2022/06/10 04:55:41;;;;;;;;;4.00;4.00;;;;;-142.59;100.00;56100.38;5076556;28;49613;-66
2022/06/10 04:58:07;;;;;;;;;6.75;4.50;;;;;-142.59;100.00;56100.38;5076314;28;49983;-67
2022/06/10 05:00:37;;;;;;;;;4.00;4.00;;;;;-142.59;100.00;56100.38;5075770;28;50976;-66
2022/06/10 05:03:03;;;;;;;;;5.00;4.25;;;;;-142.59;100.00;56100.38;5076065;28;49546;-67
2022/06/10 05:05:29;;;;;;;;;5.25;3.00;;;;;-142.59;100.00;56100.38;5075951;28;49740;-67
2022/06/10 05:07:55;;;;;;;;;4.00;4.00;;;;;-142.59;100.00;56100.38;5074412;28;49933;-66
2022/06/10 05:10:21;;;;;;;;;4.00;4.00;;;;;-142.59;100.00;56100.38;5075569;27;50511;-67
2022/06/10 05:12:47;;;;;;;;;3.75;3.25;;;;;-142.59;100.00;56100.38;5076285;27;49565;-67
2022/06/10 05:15:19;;;;;;;;;3.75;3.75;;;;;-142.59;100.00;56100.38;5075648;28;50319;-67
2022/06/10 05:17:44;;;;;;;;;4.50;3.25;;;;;-142.59;100.00;56100.38;5076528;28;49615;-67
2022/06/10 05:20:15;;;;;;;;;4.00;3.00;;;;;-142.59;100.00;56100.38;5075582;28;49777;-67
2022/06/10 05:22:41;;;;;;;;;2.25;2.25;;;;;-142.59;100.00;56100.38;5075642;28;49680;-68
2022/06/10 05:25:07;;;;;;;;;5.25;5.00;;;;;-142.59;100.00;56100.38;5075990;28;49644;-66
2022/06/10 05:27:32;;;;;;;;;4.25;2.00;;;;;-142.59;100.00;56100.38;5076126;28;49674;-67
2022/06/10 05:29:57;;;;;;;;;4.00;2.50;;;;;-142.59;100.00;56100.38;5075893;28;49735;-67
2022/06/10 05:32:22;;;;;;;;;4.50;4.50;;;;;-142.59;100.00;56100.38;5075309;27;49811;-67
2022/06/10 05:34:48;;;;;;;;;3.00;3.00;;;;;-142.59;100.00;56100.38;5075484;28;49818;-67
2022/06/10 05:37:20;;;;;;;;;5.25;3.50;;;;;-142.59;100.00;56100.38;5075884;28;49984;-66
2022/06/10 05:39:45;;;;;;;;;5.75;4.25;;;;;-142.59;100.00;56100.38;5075449;28;50735;-65
2022/06/10 05:42:12;;;;;;;;;5.50;4.25;;;;;-142.59;100.00;56100.38;5075460;28;49764;-71
2022/06/10 05:44:43;;;;;;;;;4.75;3.00;;;;;-142.59;100.00;56100.38;5057293;28;49668;-68
2022/06/10 05:47:13;;;;;;;;;2.75;2.75;;;;;-142.59;100.00;56100.38;5071980;27;50017;-70
2022/06/10 05:49:45;;;;;;;;;5.75;5.75;;;;;-142.59;100.00;56100.38;5075375;27;49745;-79
2022/06/10 05:52:13;;;;;;;;;5.25;5.25;;;;;-142.59;100.00;56100.38;5073540;27;49739;-76
2022/06/10 05:54:41;;;;;;;;;3.00;3.00;;;;;-142.59;100.00;56100.38;5075053;28;49611;-75
2022/06/10 05:57:07;;;;;;;;;6.00;6.00;;;;;-142.59;100.00;56100.38;5075428;28;49685;-80
2022/06/10 05:59:33;;;;;;;;;6.25;4.25;;;;;-142.59;100.00;56100.38;5074878;28;49814;-82
2022/06/10 06:02:01;;;;;;;;;5.25;5.00;;;;;-142.59;100.00;56100.38;5075120;28;49856;-74
2022/06/10 06:04:27;;;;;;;;;6.50;5.50;;;;;-142.59;100.00;56100.38;5075668;28;49764;-74
2022/06/10 06:06:53;;;;;;;;;4.75;4.25;;;;;-142.59;100.00;56100.38;5075723;28;49720;-75
2022/06/10 06:09:19;;;;;;;;;3.50;3.50;;;;;-142.59;100.00;56100.38;5074815;27;50429;-74
2022/06/10 06:11:46;;;;;;;;;6.75;4.00;;;;;-142.59;100.00;56100.38;5075193;27;49862;-74
2022/06/10 06:14:11;;;;;;;;;5.75;3.75;;;;;-142.59;100.00;56100.38;5075037;28;49668;-73
2022/06/10 06:16:37;;;;;;;;;5.00;4.00;;;;;-142.59;100.00;56100.38;5074942;28;49554;-74
2022/06/10 06:19:03;;;;;;;;;1.75;1.75;;;;;-142.59;100.00;56100.38;5075166;27;49596;-74
2022/06/10 06:21:29;;;;;;;;;2.75;2.75;;;;;-142.59;100.00;56100.38;5075171;28;49909;-74
2022/06/10 06:23:54;;;;;;;;;2.50;2.50;;;;;-142.59;100.00;56100.38;5074433;28;50399;-72
2022/06/10 06:26:20;;;;;;;;;3.75;3.75;;;;;-142.59;100.00;56100.38;5056859;28;49874;-72
2022/06/10 06:28:46;;;;;;;;;4.50;3.50;;;;;-142.59;100.00;56100.38;5074555;27;49795;-73
2022/06/10 06:31:12;;;;;;;;;4.00;3.00;;;;;-142.59;100.00;56100.38;5074637;27;49878;-72
2022/06/10 06:33:37;;;;;;;;;2.75;2.75;;;;;-142.59;100.00;56100.38;5056704;28;49610;-76
2022/06/10 06:36:04;;;;;;;;;4.00;4.00;;;;;-142.59;100.00;56100.38;5075294;28;49933;-75
2022/06/10 06:38:31;;;;;;;;;4.00;2.50;;;;;-142.59;100.00;56100.38;5074482;28;49686;-73
2022/06/10 06:40:56;;;;;;;;;4.00;2.75;;;;;-142.59;100.00;56100.38;5074558;28;49660;-74
2022/06/10 06:43:22;;;;;;;;;3.00;3.00;;;;;-142.59;100.00;56100.38;5074399;27;49696;-71
2022/06/10 06:45:47;;;;;;;;;3.00;3.00;;;;;-142.59;100.00;56100.38;5073432;28;49918;-70
2022/06/10 06:48:13;;;;;;;;;3.00;3.00;;;;;-142.59;100.00;56100.38;5062754;28;49815;-70
2022/06/10 06:50:46;;;;;;;;;5.00;4.75;;;;;-142.59;100.00;56100.38;5074281;28;49831;-72
2022/06/10 06:53:11;;;;;;;;;6.25;6.00;;;;;-142.59;100.00;56100.38;5074730;27;49781;-74
2022/06/10 06:55:38;;;;;;;;;4.25;4.00;;;;;-142.59;100.00;56100.38;5074608;28;49721;-73
2022/06/10 06:58:05;;;;;;;;;2.00;2.00;;;;;-142.59;100.00;56100.38;5074191;28;49695;-72
2022/06/10 07:00:31;;;;;;;;;18.75;7.50;;;;;-142.59;100.00;56100.38;5074279;27;49725;-75
2022/06/10 07:02:57;;;;;;;;;2.25;2.25;;;;;-142.59;100.00;56100.38;5073621;28;49674;-73
2022/06/10 07:05:23;;;;;;;;;3.00;3.00;;;;;-142.59;100.00;56100.38;5072184;28;50086;-74
2022/06/10 07:07:49;;;;;;;;;1.25;1.25;;;;;-142.59;100.00;56100.38;5074517;28;49688;-74
2022/06/10 07:10:16;;;;;;;;;3.00;2.00;;;;;-142.59;100.00;56100.38;5074156;28;49590;-74
2022/06/10 07:12:42;;;;;;;;;4.50;3.25;;;;;-142.59;100.00;56100.38;5074398;27;49721;-73
2022/06/10 07:15:08;;;;;;;;;2.00;2.00;;;;;-142.59;100.00;56100.38;5074757;28;49707;-73
2022/06/10 07:17:33;;;;;;;;;3.75;2.75;;;;;-142.59;100.00;56100.38;5074354;28;49931;-73
2022/06/10 07:20:00;;;;;;;;;2.25;2.25;;;;;-142.59;100.00;56100.38;5074115;28;49581;-74
2022/06/10 07:22:26;;;;;;;;;3.00;2.75;;;;;-142.59;100.00;56100.38;5074108;27;49711;-74
2022/06/10 07:24:53;;;;;;;;;3.25;3.00;;;;;-142.59;100.00;56100.38;5074207;28;49898;-74
2022/06/10 07:27:19;;;;;;;;;6.00;4.50;;;;;-142.59;100.00;56100.38;5074016;28;50442;-76
2022/06/10 07:29:45;;;;;;;;;2.00;2.00;;;;;-142.59;100.00;56100.38;5073982;27;49791;-74
2022/06/10 07:32:11;;;;;;;;;3.00;3.00;;;;;-142.59;100.00;56100.38;5074119;27;49807;-76
2022/06/10 07:34:36;;;;;;;;;3.25;2.25;;;;;-142.59;100.00;56100.38;5059620;28;49771;-74
2022/06/10 07:37:02;;;;;;;;;2.75;2.75;;;;;-142.59;100.00;56100.38;5072912;27;49685;-74
2022/06/10 07:39:27;;;;;;;;;3.00;3.00;;;;;-142.59;100.00;56100.38;5068669;27;50127;-73
2022/06/10 07:42:02;;;;;;;;;3.00;2.00;;;;;-142.59;100.00;56100.38;5072605;27;49650;-76
2022/06/10 07:44:34;;;;;;;;;3.75;3.75;;;;;-142.59;100.00;56100.38;5074382;28;49692;-71
2022/06/10 07:47:03;;;;;;;;;3.50;2.50;;;;;-142.59;100.00;56100.38;5054609;28;51928;-74
2022/06/10 07:49:30;;;;;;;;;3.00;2.00;;;;;-142.59;100.00;56100.38;5071649;28;49771;-75
2022/06/10 07:51:57;;;;;;;;;2.50;2.50;;;;;-142.59;100.00;56100.38;5073236;28;49793;-74
2022/06/10 07:54:23;;;;;;;;;5.25;2.00;;;;;-142.59;100.00;56100.38;5073424;28;49676;-74
2022/06/10 07:56:49;;;;;;;;;2.25;2.00;;;;;-142.59;100.00;56100.38;5079636;27;50613;-74
2022/06/10 07:59:15;;;;;;;;;3.00;3.00;;;;;-142.59;100.00;56100.38;5073927;27;49775;-74
2022/06/10 08:01:41;;;;;;;;;2.25;1.75;;;;;-142.59;100.00;56100.38;5077192;27;50012;-74
2022/06/10 08:04:08;;;;;;;;;4.00;3.00;;;;;-142.59;100.00;56100.38;5072195;27;49981;-76
2022/06/10 08:06:36;;;;;;;;;3.00;1.75;;;;;-142.59;100.00;56100.38;5073343;28;49757;-81
2022/06/10 08:09:03;;;;;;;;;2.50;2.50;;;;;-142.59;100.00;56100.38;5072699;28;49701;-80
2022/06/10 08:11:29;;;;;;;;;6.75;4.00;;;;;-142.59;100.00;56100.38;5073409;27;49906;-80
2022/06/10 08:13:54;;;;;;;;;1.75;1.75;;;;;-142.59;100.00;56100.38;5064683;28;50009;-80
2022/06/10 08:16:20;;;;;;;;;2.00;2.00;;;;;-142.59;100.00;56100.38;5076492;27;49742;-79
2022/06/10 08:18:48;;;;;;;;;2.75;2.00;;;;;-142.59;100.00;56100.38;5077284;28;49675;-80
2022/06/10 08:23:58;;;;;;;;;2.25;2.00;;;;;-142.59;100.00;56100.38;5076504;27;49740;-78
2022/06/10 08:26:25;;;;;;;;;2.00;1.00;;;;;-142.59;100.00;56100.38;5075591;27;50608;-79
2022/06/10 08:28:53;;;;;;;;;1.25;1.25;;;;;-142.59;100.00;56100.38;5064637;28;49652;-76
2022/06/10 08:31:20;;;;;;;;;2.00;2.00;;;;;-142.59;100.00;56100.38;5077174;28;49702;-84
2022/06/10 08:33:47;;;;;;;;;2.25;2.25;;;;;-142.59;100.00;56100.38;5076576;27;49848;-78
2022/06/10 08:36:13;;;;;;;;;2.75;2.00;;;;;-142.59;100.00;56100.38;5076446;28;49867;-78
2022/06/10 08:38:42;;;;;;;;;0.75;0.75;;;;;-142.59;100.00;56100.38;5083735;27;49734;-79
2022/06/10 08:41:38;;;;;;;;;2.00;1.00;;;;;-142.59;100.00;56100.38;5075973;28;49875;-79
2022/06/10 08:44:21;;;;;;;;;2.00;2.00;;;;;-142.59;100.00;56100.38;5063621;27;49841;-79
2022/06/10 08:47:05;;;;;;;;;1.00;1.00;;;;;-142.59;100.00;56100.38;5069025;28;51106;-79
2022/06/10 08:49:45;;;;;;;;;1.00;1.00;;;;;-142.59;100.00;56100.38;5075456;27;49878;-80
2022/06/10 08:52:15;;;;;;;;;1.00;1.00;;;;;-142.59;100.00;56100.38;5076113;27;49991;-76
2022/06/10 08:54:56;;;;;;;;;0.00;0.00;;;;;-142.59;100.00;56100.38;5076088;27;49854;-80
2022/06/10 08:57:36;;;;;;;;;2.00;1.00;;;;;-142.59;100.00;56100.38;5075552;27;49781;-79
2022/06/10 09:00:11;;;;;;;;;1.00;0.00;;;;;-142.59;100.00;56100.38;5057209;28;49645;-80
2022/06/10 09:02:46;;;;;;;;;2.00;0.50;;;;;-142.59;100.00;56100.38;5075695;27;49962;-80
2022/06/10 09:05:21;;;;;;;;;0.75;0.75;;;;;-142.59;100.00;56100.38;5076457;27;49778;-84
2022/06/10 09:07:56;;;;;;;;;1.00;1.00;;;;;-142.59;100.00;56100.38;5075821;27;49774;-80
2022/06/10 09:10:32;;;;;;;;;1.75;1.75;;;;;-142.59;100.00;56100.38;5063463;28;49689;-80
2022/06/10 09:13:16;;;;;;;;;2.00;1.00;;;;;-142.59;100.00;56100.38;5058349;28;49799;-80
2022/06/10 09:16:09;;;;;;;;;1.00;1.00;;;;;-142.59;100.00;56100.38;5054862;28;49788;-80
2022/06/10 09:18:47;;;;;;;;;3.50;1.00;;;;;-142.59;100.00;56100.38;5055946;28;50948;-71
2022/06/10 09:21:24;;;;;;;;;0.00;0.00;;;;;-142.59;100.00;56100.38;5055928;28;49751;-71
2022/06/10 09:23:56;;;;;;;;;1.50;1.00;;;;;-142.59;100.00;56100.38;5067267;28;49827;-71
2022/06/10 09:26:42;;;;;;;;;2.25;1.75;;;;;-142.59;100.00;56100.38;5075075;28;49678;-71
2022/06/10 09:29:09;;;;;;;;;2.50;2.50;;;;;-142.59;100.00;56100.38;5068995;28;49692;-71
2022/06/10 09:31:45;;;;;;;;;1.00;1.00;;;;;-142.59;100.00;56100.38;5074256;28;49727;-71
2022/06/10 09:34:52;;;;;;;;;1.00;1.00;;;;;-142.59;100.00;56100.38;5055771;28;49748;-71
2022/06/10 09:37:51;;;;;;;;;1.00;0.00;;;;;-142.59;100.00;56100.38;5005994;28;49700;-71
2022/06/10 09:40:39;;;;;;;;;1.00;1.00;;;;;-142.59;100.00;56100.38;5054796;28;50555;-71
2022/06/10 09:43:29;;;;;;;;;2.50;2.25;;;;;-142.59;100.00;56100.38;5055602;28;49644;-71
2022/06/10 09:46:16;;;;;;;;;3.50;3.00;;;;;-142.59;100.00;56100.38;5058044;28;49960;-71
2022/06/10 09:48:51;;;;;;;;;4.25;1.75;;;;;-142.59;100.00;56100.38;5065967;28;50774;-72
2022/06/10 09:51:29;;;;;;;;;2.25;1.00;;;;;-142.59;100.00;56100.38;5052589;28;51033;-71
2022/06/10 09:54:13;;;;;;;;;1.50;1.50;;;;;-142.59;100.00;56100.38;5054973;28;49613;-71
2022/06/10 09:57:16;;;;;;;;;2.00;2.00;;;;;-142.59;100.00;56100.38;5063902;28;49737;-73
2022/06/10 09:59:57;;;;;;;;;1.75;1.75;;;;;-142.59;100.00;56100.38;5023765;28;50699;-72
2022/06/10 10:02:43;;;;;;;;;1.00;1.00;;;;;-142.59;100.00;56100.38;5057497;28;50750;-73
2022/06/10 10:05:30;;;;;;;;;2.00;2.00;;;;;-142.59;100.00;56100.38;5075431;28;49912;-72
2022/06/10 10:08:06;;;;;;;;;1.50;1.50;;;;;-142.59;100.00;56100.38;5071686;28;50028;-71
2022/06/10 10:10:50;;;;;;;;;1.00;1.00;;;;;-142.59;100.00;56100.38;5074653;27;49827;-72
2022/06/10 10:13:48;;;;;;;;;2.50;2.50;;;;;-142.59;100.00;56100.38;5074744;28;51409;-72
2022/06/10 10:16:17;;;;;;;;;4.00;2.00;;;;;-142.59;100.00;56100.38;5074683;28;49909;-71
2022/06/10 10:19:01;;;;;;;;;2.00;2.00;;;;;-142.59;100.00;56100.38;5072633;28;49857;-71
2022/06/10 10:21:41;;;;;;;;;3.00;3.00;;;;;-142.59;100.00;56100.38;5074164;27;49791;-71
2022/06/10 10:24:15;;;;;;;;;2.50;1.50;;;;;-142.59;100.00;56100.38;5074007;28;50477;-71
2022/06/10 10:26:43;;;;;;;;;4.00;3.00;;;;;-142.59;100.00;56100.38;5075163;28;49812;-71
2022/06/10 10:29:15;;;;;;;;;4.00;2.00;;;;;-142.59;100.00;56100.38;5075038;28;49731;-71
2022/06/10 10:31:53;;;;;;;;;2.25;2.25;;;;;-142.59;100.00;56100.38;5075307;27;49783;-71
2022/06/10 10:34:23;;;;;;;;;2.00;2.00;;;;;-142.59;100.00;56100.38;5074745;27;50770;-72
2022/06/10 10:36:55;;;;;;;;;2.25;2.25;;;;;-142.59;100.00;56100.38;5075024;28;49645;-71
2022/06/10 10:39:30;;;;;;;;;4.00;4.00;;;;;-142.59;100.00;56100.38;5056481;28;49878;-71
2022/06/10 10:42:06;;;;;;;;;3.75;1.50;;;;;-142.59;100.00;56100.38;5074854;27;50045;-71
2022/06/10 10:44:31;;;;;;;;;2.00;2.00;;;;;-142.59;100.00;56100.38;5074657;28;49611;-72
2022/06/10 10:47:17;;;;;;;;;1.50;1.50;;;;;-142.59;100.00;56100.38;5074725;28;49831;-71
2022/06/10 10:50:03;;;;;;;;;3.00;3.00;;;;;-142.59;100.00;56100.38;5074909;27;49541;-71
2022/06/10 10:52:42;;;;;;;;;1.00;1.00;;;;;-142.59;100.00;56100.38;5074629;27;49810;-71
2022/06/10 10:55:07;;;;;;;;;1.50;1.50;;;;;-142.59;100.00;56100.38;5074238;28;49864;-71
2022/06/10 10:57:36;;;;;;;;;2.00;1.00;;;;;-142.59;100.00;56100.38;5074445;28;49744;-70
2022/06/10 11:00:11;;;;;;;;;3.00;1.50;;;;;-142.59;100.00;56100.38;5074894;28;49685;-71
2022/06/10 11:02:56;;;;;;;;;1.75;1.75;;;;;-142.59;100.00;56100.38;5074739;28;49613;-70
2022/06/10 11:05:32;;;;;;;;;1.75;1.75;;;;;-142.59;100.00;56100.38;5074188;28;49726;-71
2022/06/10 11:08:06;;;;;;;;;1.00;0.75;;;;;-142.59;100.00;56100.38;5074332;27;49538;-71
2022/06/10 11:10:34;;;;;;;;;2.50;1.75;;;;;-142.59;100.00;56100.38;5074259;27;49673;-71
2022/06/10 11:13:06;;;;;;;;;3.00;1.75;;;;;-142.59;100.00;56100.38;5074524;27;49591;-71
2022/06/10 11:15:34;;;;;;;;;4.00;3.50;;;;;-142.59;100.00;56100.38;5074158;28;50486;-71
2022/06/10 11:18:01;;;;;;;;;3.50;3.50;;;;;-142.59;100.00;56100.38;5074183;28;49898;-71
2022/06/10 11:20:33;;;;;;;;;2.00;0.50;;;;;-142.59;100.00;56100.38;5074259;28;49799;-71
2022/06/10 11:23:22;;;;;;;;;3.00;2.50;;;;;-142.59;100.00;56100.38;5074521;28;49601;-71
2022/06/10 11:26:13;;;;;;;;;3.00;1.00;;;;;-142.59;100.00;56100.38;5073904;28;51447;-71
2022/06/10 11:28:42;;;;;;;;;2.00;2.00;;;;;-142.59;100.00;56100.38;5074122;27;49721;-71
2022/06/10 11:31:48;;;;;;;;;1.75;1.75;;;;;-142.59;100.00;56100.38;5074259;27;50023;-71
2022/06/10 11:34:33;;;;;;;;;2.75;2.75;;;;;-142.59;100.00;56100.38;5060487;28;49783;-71
2022/06/10 11:36:58;;;;;;;;;2.25;1.50;;;;;-142.59;100.00;56100.38;5073085;27;49849;-71
2022/06/10 11:39:33;;;;;;;;;3.00;2.00;;;;;-142.59;100.00;56100.38;5072893;28;49664;-72
2022/06/10 11:42:21;;;;;;;;;2.50;2.50;;;;;-142.59;100.00;56100.38;5065773;28;49751;-68